Time;durP1;ratioP1;P1;durP2;ratioP2;P2;SDS_P1;SDS_P2;PMS_P1;PMS_P2;Temp;Humidity;BMP_temperature;BMP_pressure;BME280_temperature;BME280_humidity;BME280_pressure;Samples;Min_cycle;Max_cycle;Signal;HPM_P1;HPM_P2
2022/01/02 00:00:22;;;;;;;9.93;6.90;;;11.00;99.90;;;;;;5077601;28;20212;-69
2022/01/02 00:02:55;;;;;;;7.53;4.50;;;11.00;99.90;;;;;;5072963;28;20332;-68
2022/01/02 00:05:22;;;;;;;8.03;5.27;;;10.90;99.90;;;;;;5078177;28;20194;-70
2022/01/02 00:07:59;;;;;;;15.67;5.20;;;10.90;99.90;;;;;;5071232;28;20207;-69
2022/01/02 00:10:26;;;;;;;7.63;4.67;;;10.90;99.90;;;;;;5076868;28;20208;-70
2022/01/02 00:12:58;;;;;;;6.03;4.57;;;10.90;99.90;;;;;;5073819;28;20252;-69
2022/01/02 00:15:24;;;;;;;7.17;4.13;;;10.90;99.90;;;;;;5077690;28;20306;-66
2022/01/02 00:17:51;;;;;;;7.07;4.43;;;10.80;99.90;;;;;;5073910;28;20200;-70
2022/01/02 00:20:32;;;;;;;7.27;4.70;;;10.80;99.90;;;;;;5076353;28;20248;-67
2022/01/02 00:23:06;;;;;;;7.53;4.70;;;10.70;99.90;;;;;;5073835;28;20289;-67
2022/01/02 00:25:38;;;;;;;10.70;4.57;;;10.70;99.90;;;;;;5076696;28;20652;-67
2022/01/02 00:28:05;;;;;;;6.83;4.67;;;10.60;99.90;;;;;;5074288;28;20212;-69
2022/01/02 00:30:32;;;;;;;12.57;5.73;;;10.60;99.90;;;;;;5076871;28;20197;-69
2022/01/02 00:33:02;;;;;;;11.03;5.20;;;10.50;99.90;;;;;;5075023;28;20431;-69
2022/01/02 00:35:27;;;;;;;8.47;4.40;;;10.50;99.90;;;;;;5077262;28;20715;-69
2022/01/02 00:37:53;;;;;;;9.93;4.33;;;10.50;99.90;;;;;;5063302;28;20225;-69
2022/01/02 00:40:19;;;;;;;8.27;4.67;;;10.50;99.90;;;;;;5052284;28;20221;-70
2022/01/02 00:42:47;;;;;;;9.43;4.93;;;10.50;99.90;;;;;;5067287;28;20194;-69
2022/01/02 00:45:33;;;;;;;7.63;4.53;;;10.40;99.90;;;;;;5048034;28;20211;-68
2022/01/02 00:48:08;;;;;;;6.50;4.57;;;10.40;99.90;;;;;;5064098;28;20200;-69
2022/01/02 00:50:37;;;;;;;7.37;4.17;;;10.30;99.90;;;;;;5058063;28;20661;-69
2022/01/02 00:53:04;;;;;;;10.53;4.87;;;10.40;99.90;;;;;;5067037;28;20197;-69
2022/01/02 00:55:33;;;;;;;7.30;4.67;;;10.40;99.90;;;;;;5054445;28;20291;-69
2022/01/02 00:58:01;;;;;;;5.57;4.57;;;10.30;99.90;;;;;;5066199;28;20247;-69
2022/01/02 01:00:29;;;;;;;6.67;4.70;;;10.30;99.90;;;;;;5059921;28;20215;-70
2022/01/02 01:02:59;;;;;;;6.87;5.37;;;10.30;99.90;;;;;;5066922;28;20665;-69
2022/01/02 01:05:28;;;;;;;5.70;4.50;;;10.20;99.90;;;;;;5062363;28;20198;-70
2022/01/02 01:08:01;;;;;;;10.03;6.20;;;10.20;99.90;;;;;;5069760;28;20218;-71
2022/01/02 01:10:29;;;;;;;5.57;5.07;;;10.20;99.90;;;;;;5050387;28;20195;-69
2022/01/02 01:12:57;;;;;;;10.03;5.87;;;10.20;99.90;;;;;;5066999;28;20209;-69
2022/01/02 01:15:26;;;;;;;7.20;4.93;;;10.20;99.90;;;;;;5056228;28;20227;-69
2022/01/02 01:17:53;;;;;;;8.40;5.40;;;10.20;99.90;;;;;;5066748;28;20192;-69
2022/01/02 01:20:19;;;;;;;9.40;4.43;;;10.10;99.90;;;;;;5062567;28;20210;-63
2022/01/02 01:22:46;;;;;;;6.77;5.23;;;10.10;99.90;;;;;;5059162;28;20742;-65
2022/01/02 01:25:16;;;;;;;11.87;6.77;;;10.10;99.90;;;;;;5077080;28;20179;-64
2022/01/02 01:27:42;;;;;;;11.33;5.67;;;10.10;99.90;;;;;;5073034;28;20281;-64
2022/01/02 01:30:09;;;;;;;8.47;5.10;;;10.10;99.90;;;;;;5075907;28;20200;-65
2022/01/02 01:32:35;;;;;;;7.30;5.13;;;10.10;99.90;;;;;;5072215;28;20199;-65
2022/01/02 01:35:02;;;;;;;6.30;4.43;;;10.00;99.90;;;;;;5076263;28;20216;-64
2022/01/02 01:37:28;;;;;;;8.03;6.17;;;10.00;99.90;;;;;;5072502;28;20201;-66
2022/01/02 01:39:53;;;;;;;10.30;5.40;;;10.00;99.90;;;;;;5074494;28;20276;-65
2022/01/02 01:42:29;;;;;;;6.60;5.00;;;10.00;99.90;;;;;;5073904;28;20206;-66
2022/01/02 01:45:28;;;;;;;8.20;4.97;;;10.10;99.90;;;;;;5075535;28;20193;-64
2022/01/02 01:47:52;;;;;;;9.27;5.40;;;10.10;99.90;;;;;;5074429;28;20207;-64
2022/01/02 01:50:19;;;;;;;5.90;4.90;;;10.10;99.90;;;;;;5075114;28;20194;-64
2022/01/02 01:52:44;;;;;;;9.37;5.93;;;10.00;99.90;;;;;;5074133;28;20321;-64
2022/01/02 01:55:11;;;;;;;6.27;5.23;;;10.00;99.90;;;;;;5074716;28;21105;-65
2022/01/02 01:57:39;;;;;;;12.17;6.33;;;10.00;99.90;;;;;;5073356;28;20225;-65
2022/01/02 02:00:11;;;;;;;7.43;5.27;;;10.00;99.90;;;;;;5076532;28;20566;-66
2022/01/02 02:02:37;;;;;;;8.10;5.70;;;9.90;99.90;;;;;;5072480;28;20202;-65
2022/01/02 02:05:03;;;;;;;9.70;6.20;;;9.90;99.90;;;;;;5075280;28;20189;-63
2022/01/02 02:07:37;;;;;;;9.90;5.67;;;10.00;99.90;;;;;;5071765;28;20201;-64
2022/01/02 02:10:15;;;;;;;6.23;5.53;;;10.00;99.90;;;;;;5072674;28;20188;-65
2022/01/02 02:12:45;;;;;;;11.07;5.63;;;10.00;99.90;;;;;;5073167;28;20610;-65
2022/01/02 02:15:13;;;;;;;6.47;5.23;;;10.10;99.90;;;;;;5073894;28;20218;-65
2022/01/02 02:17:39;;;;;;;7.57;6.10;;;10.00;99.90;;;;;;5072990;28;20299;-65
2022/01/02 02:20:12;;;;;;;7.90;5.60;;;10.00;99.90;;;;;;5072718;28;20815;-67
2022/01/02 02:22:43;;;;;;;8.27;6.30;;;10.00;99.90;;;;;;5068065;28;20209;-64
2022/01/02 02:25:10;;;;;;;8.93;5.93;;;10.00;99.90;;;;;;5056344;28;20342;-65
2022/01/02 02:27:36;;;;;;;9.30;5.83;;;9.90;99.90;;;;;;5071625;28;20209;-65
2022/01/02 02:30:06;;;;;;;6.70;5.57;;;9.90;99.90;;;;;;5073444;28;20737;-65
2022/01/02 02:32:32;;;;;;;8.37;5.40;;;9.80;99.90;;;;;;5072329;28;20691;-64
2022/01/02 02:34:57;;;;;;;6.47;5.10;;;9.80;99.90;;;;;;5073249;28;20209;-65
2022/01/02 02:37:25;;;;;;;10.80;5.20;;;9.70;99.90;;;;;;5071911;28;20416;-67
2022/01/02 02:39:51;;;;;;;8.00;5.13;;;9.80;99.90;;;;;;5074630;28;20329;-64
2022/01/02 02:42:31;;;;;;;10.13;6.17;;;9.70;99.90;;;;;;5063865;28;20395;-64
2022/01/02 02:48:57;;;;;;;8.97;5.77;;;9.70;99.90;;;;;;5062310;28;20543;-63
2022/01/02 02:50:36;;;;;;;5.50;4.77;;;9.60;99.90;;;;;;5051264;28;20659;-61
2022/01/02 02:53:01;;;;;;;7.07;5.23;;;9.60;99.90;;;;;;5052339;28;20214;-63
2022/01/02 02:55:31;;;;;;;11.33;5.07;;;9.50;99.90;;;;;;5064989;28;20209;-63
2022/01/02 02:58:08;;;;;;;9.17;6.00;;;9.60;99.90;;;;;;5047884;28;20247;-62
2022/01/02 03:00:34;;;;;;;7.20;5.47;;;9.60;99.90;;;;;;5050682;28;20239;-63
2022/01/02 03:02:59;;;;;;;8.03;5.57;;;9.60;99.90;;;;;;5048108;28;20198;-63
2022/01/02 03:05:25;;;;;;;7.30;4.93;;;9.50;99.90;;;;;;5064456;28;20189;-63
2022/01/02 03:07:50;;;;;;;7.97;5.40;;;9.50;99.90;;;;;;5057469;28;20210;-62
2022/01/02 03:10:17;;;;;;;7.73;4.93;;;9.50;99.90;;;;;;5064729;28;20297;-62
2022/01/02 03:12:42;;;;;;;8.80;5.40;;;9.50;99.90;;;;;;5049413;28;20211;-62
2022/01/02 03:15:08;;;;;;;7.37;5.33;;;9.50;99.90;;;;;;5063936;28;20703;-62
2022/01/02 03:17:33;;;;;;;6.47;5.73;;;9.50;99.90;;;;;;5049423;28;20199;-63
2022/01/02 03:19:59;;;;;;;9.60;5.53;;;9.40;99.90;;;;;;5063533;28;20950;-63
2022/01/02 03:22:24;;;;;;;7.40;4.83;;;9.50;99.90;;;;;;5054729;28;20198;-64
2022/01/02 03:24:52;;;;;;;6.93;4.80;;;9.60;99.90;;;;;;5071330;28;20239;-63
2022/01/02 03:27:17;;;;;;;7.33;5.20;;;9.60;99.90;;;;;;5069676;28;20206;-64
2022/01/02 03:29:43;;;;;;;5.93;4.47;;;9.60;99.90;;;;;;5068825;28;20193;-63
2022/01/02 03:32:08;;;;;;;6.80;5.20;;;9.50;99.90;;;;;;5068498;28;20216;-63
2022/01/02 03:34:34;;;;;;;5.70;4.67;;;9.50;99.90;;;;;;5066358;28;20672;-63
2022/01/02 03:36:59;;;;;;;7.00;4.37;;;9.50;99.90;;;;;;5068010;28;20282;-63
2022/01/02 03:39:25;;;;;;;8.87;5.53;;;9.60;99.90;;;;;;5063412;28;20188;-64
2022/01/02 03:41:51;;;;;;;5.47;4.83;;;9.50;99.90;;;;;;5069676;28;20876;-63
2022/01/02 03:44:17;;;;;;;6.80;5.00;;;9.60;99.90;;;;;;5058192;28;20230;-64
2022/01/02 03:46:42;;;;;;;7.07;4.83;;;9.50;99.90;;;;;;5070350;28;20678;-63
2022/01/02 03:49:08;;;;;;;7.23;4.63;;;9.50;99.90;;;;;;5058182;28;20205;-62
2022/01/02 03:51:33;;;;;;;6.17;4.20;;;9.50;99.90;;;;;;5071043;28;20193;-63
2022/01/02 03:53:59;;;;;;;9.77;5.07;;;9.50;99.90;;;;;;5060061;28;20544;-63
2022/01/02 03:56:24;;;;;;;4.90;4.40;;;9.50;99.90;;;;;;5071079;28;20185;-63
2022/01/02 03:58:49;;;;;;;4.93;4.53;;;9.60;99.90;;;;;;5068702;28;20202;-63
2022/01/02 04:01:15;;;;;;;7.17;4.93;;;9.50;99.90;;;;;;5070502;28;20684;-62
2022/01/02 04:03:40;;;;;;;6.80;4.77;;;9.60;99.90;;;;;;5059968;28;20299;-62
2022/01/02 04:06:06;;;;;;;7.60;4.40;;;9.50;99.90;;;;;;5071152;28;20185;-62
2022/01/02 04:08:31;;;;;;;4.67;4.13;;;9.50;99.90;;;;;;5059884;28;20190;-62
2022/01/02 04:10:57;;;;;;;5.07;4.67;;;9.40;99.90;;;;;;5070542;28;20198;-62
2022/01/02 04:13:22;;;;;;;8.20;4.77;;;9.40;99.90;;;;;;5060438;28;20221;-62
2022/01/02 04:15:48;;;;;;;6.63;4.90;;;9.50;99.90;;;;;;5070358;28;20226;-62
2022/01/02 04:18:13;;;;;;;8.30;4.80;;;9.50;99.90;;;;;;5059881;28;20576;-63
2022/01/02 04:20:39;;;;;;;5.53;4.90;;;9.50;99.90;;;;;;5070732;28;20252;-63
2022/01/02 04:23:04;;;;;;;5.43;4.37;;;9.40;99.90;;;;;;5067419;28;20687;-64
2022/01/02 04:25:30;;;;;;;6.23;4.63;;;9.40;99.90;;;;;;5070355;28;20888;-64
2022/01/02 04:27:55;;;;;;;5.40;4.10;;;9.40;99.90;;;;;;5069040;28;20290;-64
2022/01/02 04:30:21;;;;;;;5.20;4.37;;;9.30;99.90;;;;;;5070952;28;20381;-64
2022/01/02 04:32:48;;;;;;;5.23;4.73;;;9.40;99.90;;;;;;5060289;28;20234;-63
2022/01/02 04:35:14;;;;;;;6.30;5.40;;;9.40;99.90;;;;;;5066592;28;20253;-63
2022/01/02 04:37:39;;;;;;;7.77;5.30;;;9.30;99.90;;;;;;5066196;28;20229;-63
2022/01/02 04:40:05;;;;;;;7.60;5.20;;;9.30;99.90;;;;;;5051427;28;20677;-63
2022/01/02 04:42:31;;;;;;;6.43;5.47;;;9.30;99.90;;;;;;5065716;28;20190;-64
2022/01/02 04:44:57;;;;;;;6.23;4.43;;;9.30;99.90;;;;;;5063406;28;20193;-63
2022/01/02 04:47:22;;;;;;;6.80;4.30;;;9.40;99.90;;;;;;5065362;28;20189;-63
2022/01/02 04:49:48;;;;;;;6.37;4.40;;;9.40;99.90;;;;;;5052638;28;20511;-63
2022/01/02 04:52:13;;;;;;;6.63;5.63;;;9.40;99.90;;;;;;5061409;28;20239;-63
2022/01/02 04:54:39;;;;;;;6.90;5.10;;;9.40;99.90;;;;;;5057957;28;20178;-63
2022/01/02 04:57:04;;;;;;;7.00;5.60;;;9.30;99.90;;;;;;5065754;28;20186;-63
2022/01/02 04:59:29;;;;;;;5.27;4.77;;;9.30;99.90;;;;;;5052633;28;20187;-63
2022/01/02 05:01:55;;;;;;;5.67;5.10;;;9.20;99.90;;;;;;5065638;28;20217;-63
2022/01/02 05:04:21;;;;;;;7.83;5.67;;;9.20;99.90;;;;;;5064083;28;20179;-63
2022/01/02 05:06:46;;;;;;;5.63;5.13;;;9.10;99.90;;;;;;5065967;28;20178;-64
2022/01/02 05:09:12;;;;;;;7.50;4.63;;;9.20;99.90;;;;;;5055289;28;20582;-62
2022/01/02 05:11:37;;;;;;;8.50;5.00;;;9.20;99.90;;;;;;5064900;28;20198;-62
2022/01/02 05:14:03;;;;;;;7.83;5.23;;;9.10;99.90;;;;;;5059306;28;20309;-63
2022/01/02 05:16:28;;;;;;;9.07;5.67;;;9.00;99.90;;;;;;5066003;28;20234;-63
2022/01/02 05:18:54;;;;;;;8.40;5.23;;;9.00;99.90;;;;;;5047626;28;20206;-64
2022/01/02 05:21:19;;;;;;;6.47;5.10;;;9.00;99.90;;;;;;5062765;28;20207;-64
2022/01/02 05:23:45;;;;;;;6.33;4.73;;;9.00;99.90;;;;;;5055833;28;20211;-63
2022/01/02 05:26:10;;;;;;;10.97;5.27;;;9.00;99.90;;;;;;5066153;28;20652;-63
2022/01/02 05:28:36;;;;;;;7.73;6.10;;;9.00;99.90;;;;;;5049604;28;20734;-64
2022/01/02 05:31:01;;;;;;;10.00;5.17;;;9.00;99.90;;;;;;5065425;28;20182;-64
2022/01/02 05:33:27;;;;;;;7.97;5.67;;;8.90;99.90;;;;;;5051208;28;20195;-64
2022/01/02 05:35:53;;;;;;;7.00;5.13;;;9.00;99.90;;;;;;5066368;28;20245;-64
2022/01/02 05:38:19;;;;;;;9.27;4.90;;;9.10;99.90;;;;;;5051776;28;20858;-64
2022/01/02 05:40:45;;;;;;;7.47;4.47;;;9.10;99.90;;;;;;5065662;28;20198;-65
2022/01/02 05:43:10;;;;;;;8.20;5.37;;;9.00;99.90;;;;;;5055073;28;21106;-64
2022/01/02 05:45:36;;;;;;;10.30;5.83;;;9.10;99.90;;;;;;5065230;28;20197;-64
2022/01/02 05:48:02;;;;;;;6.07;4.90;;;9.00;99.90;;;;;;5053914;28;20232;-64
2022/01/02 05:50:28;;;;;;;9.37;5.13;;;9.00;99.90;;;;;;5065687;28;20190;-63
2022/01/02 05:52:53;;;;;;;6.53;5.30;;;9.00;99.90;;;;;;5064067;28;20262;-64
2022/01/02 05:55:19;;;;;;;8.63;5.67;;;9.00;99.90;;;;;;5066058;28;20647;-64
2022/01/02 05:57:44;;;;;;;5.60;5.10;;;9.00;99.90;;;;;;5064073;28;20216;-63
2022/01/02 06:00:10;;;;;;;11.23;5.13;;;9.00;99.90;;;;;;5066173;28;20194;-63
2022/01/02 06:02:36;;;;;;;6.80;5.30;;;9.00;99.90;;;;;;5063935;28;20186;-63
2022/01/02 06:05:03;;;;;;;5.87;5.23;;;9.00;99.90;;;;;;5053771;28;20178;-64
2022/01/02 06:07:31;;;;;;;12.17;5.40;;;9.00;99.90;;;;;;5058859;28;20190;-64
2022/01/02 06:09:56;;;;;;;6.93;5.30;;;8.90;99.90;;;;;;5054915;28;20275;-65
2022/01/02 06:12:23;;;;;;;7.70;5.47;;;8.90;99.90;;;;;;5064229;28;20213;-64
2022/01/02 06:14:49;;;;;;;6.40;5.80;;;8.90;99.90;;;;;;5065535;28;20229;-64
2022/01/02 06:17:15;;;;;;;6.83;6.13;;;8.90;99.90;;;;;;5060719;28;20248;-63
2022/01/02 06:19:40;;;;;;;7.10;5.43;;;8.90;99.90;;;;;;5056115;28;20213;-64
2022/01/02 06:22:06;;;;;;;6.97;5.93;;;8.90;99.90;;;;;;5061730;28;20209;-63
2022/01/02 06:24:31;;;;;;;7.73;5.60;;;8.90;99.90;;;;;;5055564;28;20574;-63
2022/01/02 06:26:57;;;;;;;8.33;5.07;;;8.90;99.90;;;;;;5061118;28;20213;-63
2022/01/02 06:29:22;;;;;;;6.13;5.20;;;8.90;99.90;;;;;;5066392;28;20200;-63
2022/01/02 06:31:48;;;;;;;11.60;5.30;;;8.90;99.90;;;;;;5063326;28;20218;-63
2022/01/02 06:34:13;;;;;;;7.73;5.17;;;8.90;99.90;;;;;;5055645;28;20181;-71
2022/01/02 06:36:39;;;;;;;8.67;5.03;;;9.00;99.90;;;;;;5064954;28;20202;-62
2022/01/02 06:39:04;;;;;;;9.07;5.53;;;9.00;99.90;;;;;;5055170;28;20228;-63
2022/01/02 06:41:30;;;;;;;5.90;4.80;;;9.00;99.90;;;;;;5065414;28;20209;-63
2022/01/02 06:43:55;;;;;;;8.20;5.70;;;9.10;99.90;;;;;;5050271;28;20205;-62
2022/01/02 06:46:21;;;;;;;6.73;5.53;;;9.00;99.90;;;;;;5065455;28;20653;-62
2022/01/02 06:48:47;;;;;;;8.87;6.03;;;8.90;99.90;;;;;;5056221;28;20734;-62
2022/01/02 06:51:13;;;;;;;5.77;4.67;;;9.10;99.90;;;;;;5064556;28;20285;-63
2022/01/02 06:53:38;;;;;;;6.30;5.50;;;9.00;99.90;;;;;;5061526;28;20198;-62
2022/01/02 06:56:04;;;;;;;9.00;5.97;;;9.10;99.90;;;;;;5064162;28;20221;-62
2022/01/02 06:58:29;;;;;;;8.13;5.67;;;9.10;99.90;;;;;;5048992;28;20619;-63
2022/01/02 07:00:56;;;;;;;7.50;5.30;;;9.00;99.90;;;;;;5064324;28;20202;-62
2022/01/02 07:03:22;;;;;;;5.27;4.77;;;9.00;99.90;;;;;;5059082;28;20218;-63
2022/01/02 07:05:47;;;;;;;7.07;5.50;;;8.90;99.90;;;;;;5064427;28;20259;-63
2022/01/02 07:08:13;;;;;;;7.03;5.07;;;9.00;99.90;;;;;;5056434;28;20225;-62
2022/01/02 07:10:38;;;;;;;5.33;4.83;;;9.00;99.90;;;;;;5065217;28;20586;-63
2022/01/02 07:13:04;;;;;;;7.97;4.93;;;9.10;99.90;;;;;;5053754;28;20226;-63
2022/01/02 07:15:29;;;;;;;6.30;4.83;;;9.20;99.90;;;;;;5064550;28;20252;-63
2022/01/02 07:17:55;;;;;;;7.80;4.83;;;9.30;99.90;;;;;;5063010;28;20209;-63
2022/01/02 07:20:20;;;;;;;6.43;4.67;;;9.40;99.90;;;;;;5063518;28;20206;-63
2022/01/02 07:22:47;;;;;;;6.60;4.83;;;9.40;99.90;;;;;;5062661;28;20228;-63
2022/01/02 07:25:12;;;;;;;6.10;4.47;;;9.40;99.90;;;;;;5062355;28;20666;-63
2022/01/02 07:27:38;;;;;;;7.83;5.43;;;9.40;99.90;;;;;;5062220;28;20205;-63
2022/01/02 07:30:05;;;;;;;5.27;4.30;;;9.50;99.90;;;;;;5052311;28;20213;-64
2022/01/02 07:32:30;;;;;;;8.17;5.00;;;9.40;99.90;;;;;;5062939;28;20277;-64
2022/01/02 07:34:56;;;;;;;6.97;4.23;;;9.40;99.90;;;;;;5047987;28;20736;-63
2022/01/02 07:37:21;;;;;;;5.67;4.40;;;9.60;99.90;;;;;;5057307;28;20216;-64
2022/01/02 07:39:47;;;;;;;5.30;4.33;;;9.50;99.90;;;;;;5056079;28;20334;-63
2022/01/02 07:42:12;;;;;;;5.57;4.30;;;9.50;99.90;;;;;;5059247;28;20203;-63
2022/01/02 07:44:38;;;;;;;8.43;3.67;;;9.60;99.90;;;;;;5059930;28;20277;-62
2022/01/02 07:47:05;;;;;;;5.40;4.00;;;9.60;99.90;;;;;;5060293;28;20217;-64
2022/01/02 07:49:30;;;;;;;7.03;4.77;;;9.50;99.90;;;;;;5058276;28;20179;-63
2022/01/02 07:51:56;;;;;;;6.43;4.50;;;9.50;99.90;;;;;;5058519;28;20209;-63
2022/01/02 07:54:24;;;;;;;5.87;4.00;;;9.60;99.90;;;;;;5049596;28;20186;-62
2022/01/02 07:56:50;;;;;;;4.93;4.07;;;9.60;99.90;;;;;;5061568;28;20194;-62
2022/01/02 07:59:15;;;;;;;5.40;3.30;;;9.60;99.90;;;;;;5056680;28;21012;-62
2022/01/02 08:01:41;;;;;;;4.83;4.33;;;9.70;99.90;;;;;;5064200;28;20249;-61
2022/01/02 08:04:06;;;;;;;4.00;3.70;;;9.70;99.90;;;;;;5053393;28;20816;-62
2022/01/02 08:06:32;;;;;;;5.27;4.07;;;9.80;99.90;;;;;;5062071;28;20666;-63
2022/01/02 08:08:57;;;;;;;7.30;3.97;;;9.80;99.90;;;;;;5050855;28;20217;-63
2022/01/02 08:11:23;;;;;;;5.40;3.97;;;9.90;99.90;;;;;;5068161;28;20245;-63
2022/01/02 08:13:48;;;;;;;4.67;3.60;;;9.80;99.90;;;;;;5057075;28;20232;-63
2022/01/02 08:16:14;;;;;;;3.13;2.83;;;9.80;99.90;;;;;;5067680;28;20223;-62
2022/01/02 08:18:40;;;;;;;4.47;3.67;;;9.90;99.90;;;;;;5056988;28;20684;-63
2022/01/02 08:21:06;;;;;;;5.33;3.87;;;9.90;99.90;;;;;;5067666;28;20292;-61
2022/01/02 08:23:34;;;;;;;6.97;4.40;;;9.90;99.90;;;;;;5059828;28;20202;-62
2022/01/02 08:25:59;;;;;;;3.60;3.20;;;9.90;99.90;;;;;;5068048;28;20656;-62
2022/01/02 08:28:25;;;;;;;5.07;3.93;;;10.00;99.90;;;;;;5057103;28;20202;-63
2022/01/02 08:30:51;;;;;;;6.37;3.43;;;10.00;99.90;;;;;;5067611;28;20194;-62
2022/01/02 08:33:16;;;;;;;7.73;3.27;;;10.00;99.90;;;;;;5056410;28;20280;-62
2022/01/02 08:35:43;;;;;;;9.03;3.80;;;10.10;99.90;;;;;;5067415;28;20205;-64
2022/01/02 08:38:09;;;;;;;5.20;3.60;;;10.10;99.90;;;;;;5054898;28;20565;-63
2022/01/02 08:40:37;;;;;;;5.97;3.97;;;10.20;99.90;;;;;;5067397;28;20488;-63
2022/01/02 08:43:02;;;;;;;5.43;3.43;;;10.20;99.90;;;;;;5064188;28;20714;-63
2022/01/02 08:45:28;;;;;;;6.53;3.60;;;10.20;99.90;;;;;;5069770;28;20185;-64
2022/01/02 08:47:53;;;;;;;3.83;3.50;;;10.20;99.90;;;;;;5076503;28;20241;-64
2022/01/02 08:50:19;;;;;;;5.40;3.83;;;10.20;99.90;;;;;;5076642;28;20245;-62
2022/01/02 08:52:44;;;;;;;5.57;3.47;;;10.20;99.90;;;;;;5076203;28;20826;-63
2022/01/02 08:55:10;;;;;;;5.17;3.37;;;10.20;99.90;;;;;;5076385;28;20976;-64
2022/01/02 08:57:36;;;;;;;7.50;3.57;;;10.20;99.90;;;;;;5076899;28;20210;-70
2022/01/02 09:00:02;;;;;;;5.20;3.67;;;10.20;99.90;;;;;;5078372;28;20754;-75
2022/01/02 09:02:28;;;;;;;7.23;3.40;;;10.40;99.90;;;;;;5076178;28;20681;-69
2022/01/02 09:04:53;;;;;;;3.40;3.10;;;10.40;99.90;;;;;;5078611;28;20177;-70
2022/01/02 09:07:19;;;;;;;4.33;3.30;;;10.50;99.90;;;;;;5076042;28;20197;-69
2022/01/02 09:09:44;;;;;;;4.20;3.57;;;10.60;99.90;;;;;;5077465;28;20235;-69
2022/01/02 09:12:12;;;;;;;4.10;3.27;;;10.60;99.90;;;;;;5076273;28;20206;-71
2022/01/02 09:14:38;;;;;;;7.03;4.23;;;10.60;99.90;;;;;;5078044;28;20268;-69
2022/01/02 09:17:03;;;;;;;5.03;3.23;;;10.70;99.90;;;;;;5075563;28;20609;-71
2022/01/02 09:19:29;;;;;;;5.90;3.30;;;10.70;99.90;;;;;;5073170;28;20201;-69
2022/01/02 09:21:54;;;;;;;4.77;3.33;;;10.80;99.90;;;;;;5074677;28;21042;-69
2022/01/02 09:24:20;;;;;;;5.87;3.03;;;10.80;99.90;;;;;;5076971;28;20175;-70
2022/01/02 09:26:45;;;;;;;3.00;2.63;;;10.90;99.90;;;;;;5076991;28;20210;-70
2022/01/02 09:29:11;;;;;;;7.53;3.00;;;11.00;99.90;;;;;;5076388;28;20202;-70
2022/01/02 09:31:36;;;;;;;5.97;3.47;;;11.00;99.90;;;;;;5077481;28;20193;-69
2022/01/02 09:34:02;;;;;;;5.00;2.80;;;11.00;99.90;;;;;;5072980;28;20209;-67
2022/01/02 09:36:28;;;;;;;4.43;2.83;;;11.00;99.90;;;;;;5075645;28;20218;-67
2022/01/02 09:38:54;;;;;;;9.10;3.73;;;11.10;99.90;;;;;;5073477;28;20653;-69
2022/01/02 09:41:20;;;;;;;6.93;3.53;;;11.10;99.90;;;;;;5075603;28;20784;-67
2022/01/02 09:43:47;;;;;;;3.17;2.37;;;11.20;99.90;;;;;;5076572;28;20199;-69
2022/01/02 09:46:20;;;;;;;5.03;3.30;;;11.20;99.90;;;;;;5074085;28;20914;-70
2022/01/02 09:48:47;;;;;;;6.47;3.53;;;11.20;99.90;;;;;;5071537;28;20695;-70
2022/01/02 09:51:13;;;;;;;6.73;3.10;;;11.30;99.90;;;;;;5076663;28;20738;-70
2022/01/02 09:53:39;;;;;;;3.30;2.27;;;11.40;99.90;;;;;;5070931;28;20206;-69
2022/01/02 09:56:05;;;;;;;7.37;2.83;;;11.40;99.90;;;;;;5069145;28;20183;-70
2022/01/02 09:58:33;;;;;;;3.37;2.50;;;11.50;99.90;;;;;;5050670;28;20210;-69
2022/01/02 10:00:59;;;;;;;7.40;3.33;;;11.50;99.90;;;;;;5065859;28;20213;-69
2022/01/02 10:03:25;;;;;;;5.07;2.80;;;11.50;99.90;;;;;;5058723;28;20194;-89
2022/01/02 10:06:01;;;;;;;3.43;2.33;;;11.50;99.90;;;;;;5054986;28;20191;-77
2022/01/02 10:08:28;;;;;;;4.43;2.70;;;11.60;99.90;;;;;;5053574;28;20219;-71
2022/01/02 10:11:04;;;;;;;4.40;2.43;;;11.60;99.90;;;;;;5054332;28;20187;-85
2022/01/02 10:13:50;;;;;;;3.77;3.30;;;11.60;99.90;;;;;;5052899;28;20209;-70
2022/01/02 10:16:30;;;;;;;6.97;3.73;;;11.60;99.90;;;;;;5050050;28;20231;-69
2022/01/02 10:18:57;;;;;;;4.17;3.53;;;11.60;99.90;;;;;;5058019;28;20207;-68
2022/01/02 10:21:28;;;;;;;7.53;3.10;;;11.70;99.90;;;;;;5056200;28;20219;-69
2022/01/02 10:24:14;;;;;;;7.03;3.07;;;11.70;99.90;;;;;;5056758;28;20349;-69
2022/01/02 10:26:41;;;;;;;6.33;3.13;;;11.70;99.90;;;;;;5054286;28;20200;-69
2022/01/02 10:29:13;;;;;;;9.97;3.40;;;11.60;99.90;;;;;;5059726;28;20276;-69
2022/01/02 10:31:40;;;;;;;4.87;3.20;;;11.60;99.90;;;;;;5055690;28;20620;-69
2022/01/02 10:34:06;;;;;;;4.70;2.90;;;11.80;99.90;;;;;;5052536;28;20218;-68
2022/01/02 10:36:36;;;;;;;5.87;3.10;;;11.80;99.90;;;;;;5062147;28;20440;-67
2022/01/02 10:39:15;;;;;;;4.57;3.03;;;11.80;99.90;;;;;;5055532;28;20233;-67
2022/01/02 10:41:45;;;;;;;6.47;3.60;;;11.80;99.90;;;;;;5051254;28;20362;-68
2022/01/02 10:44:26;;;;;;;5.70;2.83;;;11.90;99.90;;;;;;5055805;28;20179;-69
2022/01/02 10:47:21;;;;;;;5.47;3.20;;;11.80;99.90;;;;;;5045669;28;20227;-68
2022/01/02 10:49:53;;;;;;;4.83;2.73;;;11.70;99.90;;;;;;5052164;28;20188;-68
2022/01/02 10:52:19;;;;;;;7.87;3.00;;;11.70;99.90;;;;;;5055017;28;20184;-71
2022/01/02 10:54:45;;;;;;;5.17;3.20;;;11.70;99.90;;;;;;5054067;28;20203;-68
2022/01/02 10:57:12;;;;;;;5.10;3.07;;;11.70;99.90;;;;;;5049438;28;20243;-68
2022/01/02 10:59:39;;;;;;;6.00;3.33;;;11.70;99.90;;;;;;5050328;28;20209;-69
2022/01/02 11:02:05;;;;;;;5.63;3.27;;;11.60;99.90;;;;;;5050842;28;20248;-70
2022/01/02 11:04:32;;;;;;;4.23;3.17;;;11.50;99.90;;;;;;5057946;28;20191;-68
2022/01/02 11:07:04;;;;;;;6.43;3.27;;;11.50;99.90;;;;;;5049099;28;20211;-69
2022/01/02 11:09:31;;;;;;;6.80;3.90;;;11.50;99.90;;;;;;5057137;28;20254;-69
2022/01/02 11:11:56;;;;;;;8.73;4.07;;;11.30;99.90;;;;;;5049130;28;20212;-70
2022/01/02 11:14:22;;;;;;;4.90;3.50;;;11.30;99.90;;;;;;5056785;28;20226;-71
2022/01/02 11:16:48;;;;;;;10.00;3.80;;;11.30;99.90;;;;;;5054802;28;20772;-68
2022/01/02 11:19:14;;;;;;;4.57;3.37;;;11.30;99.90;;;;;;5059238;28;20234;-68
2022/01/02 11:21:44;;;;;;;5.77;3.70;;;11.20;99.90;;;;;;5054986;28;20239;-68
2022/01/02 11:24:18;;;;;;;7.83;3.40;;;11.20;99.90;;;;;;5059839;28;20184;-69
2022/01/02 11:27:18;;;;;;;8.40;4.83;;;11.10;99.90;;;;;;5047622;28;20209;-67
2022/01/02 11:29:44;;;;;;;6.90;4.10;;;11.20;99.90;;;;;;5047848;28;20198;-67
2022/01/02 11:32:25;;;;;;;9.07;4.50;;;11.10;99.90;;;;;;5054296;28;20188;-66
2022/01/02 11:34:52;;;;;;;9.17;3.87;;;11.10;99.90;;;;;;5053122;28;20212;-67
2022/01/02 11:37:26;;;;;;;3.83;3.30;;;11.20;99.90;;;;;;5047398;28;20178;-67
2022/01/02 11:40:04;;;;;;;5.93;4.73;;;11.20;99.90;;;;;;5048597;28;20288;-66
2022/01/02 11:42:35;;;;;;;6.67;3.60;;;11.10;99.90;;;;;;5053484;28;20672;-69
2022/01/02 11:45:03;;;;;;;19.33;10.73;;;11.00;99.90;;;;;;5056107;28;20729;-68
2022/01/02 11:47:45;;;;;;;11.27;7.47;;;11.00;99.90;;;;;;5058596;28;20888;-67
2022/01/02 11:50:30;;;;;;;10.47;5.57;;;11.10;99.90;;;;;;5053422;28;20200;-68
2022/01/02 11:53:13;;;;;;;8.87;4.93;;;11.20;99.90;;;;;;5055642;28;20183;-68
2022/01/02 11:55:40;;;;;;;8.70;5.37;;;11.20;99.90;;;;;;5056257;28;20225;-69
2022/01/02 11:58:07;;;;;;;8.13;5.20;;;11.20;99.90;;;;;;5051858;28;20190;-69
2022/01/02 12:00:44;;;;;;;8.17;4.30;;;11.20;99.90;;;;;;5055738;28;20237;-69
2022/01/02 12:03:38;;;;;;;6.10;4.43;;;11.20;99.90;;;;;;5058560;28;20198;-70
2022/01/02 12:06:23;;;;;;;7.50;4.77;;;11.20;99.90;;;;;;5056733;28;20195;-68
2022/01/02 12:08:50;;;;;;;9.77;4.50;;;11.20;99.90;;;;;;5051876;28;20352;-68
2022/01/02 12:11:31;;;;;;;7.77;5.10;;;11.20;99.90;;;;;;5060538;28;20210;-68
2022/01/02 12:14:18;;;;;;;8.67;4.40;;;11.10;99.90;;;;;;5060690;28;20611;-68
2022/01/02 12:16:52;;;;;;;4.17;3.37;;;11.00;99.90;;;;;;5055375;28;20223;-67
2022/01/02 12:19:18;;;;;;;5.70;3.87;;;11.10;99.90;;;;;;5052252;28;20194;-68
2022/01/02 12:22:15;;;;;;;5.57;4.40;;;11.00;99.90;;;;;;5051577;28;20210;-69
2022/01/02 12:24:42;;;;;;;5.53;4.20;;;11.00;99.90;;;;;;5051552;28;20188;-67
2022/01/02 12:27:09;;;;;;;7.03;4.30;;;10.90;99.90;;;;;;5056486;28;20190;-68
2022/01/02 12:29:35;;;;;;;7.27;4.40;;;10.90;99.90;;;;;;5051177;28;20612;-69
2022/01/02 12:32:01;;;;;;;6.33;4.57;;;10.90;99.90;;;;;;5055054;28;20184;-69
2022/01/02 12:34:27;;;;;;;6.33;4.80;;;10.80;99.90;;;;;;5057873;28;20300;-68
2022/01/02 12:36:55;;;;;;;6.03;3.73;;;10.80;99.90;;;;;;5052102;28;20246;-69
2022/01/02 12:39:28;;;;;;;6.73;4.17;;;10.80;99.90;;;;;;5060574;28;20213;-67
2022/01/02 12:41:59;;;;;;;9.10;3.77;;;10.80;99.90;;;;;;5049814;28;20605;-68
2022/01/02 12:44:28;;;;;;;9.37;3.93;;;10.80;99.90;;;;;;5054622;28;20178;-67
2022/01/02 12:46:55;;;;;;;8.20;4.20;;;10.80;99.90;;;;;;5050846;28;20830;-67
2022/01/02 12:49:45;;;;;;;8.27;3.80;;;10.90;99.90;;;;;;5061233;28;20654;-68
2022/01/02 12:52:15;;;;;;;7.80;3.57;;;10.80;99.90;;;;;;5052524;28;20187;-68
2022/01/02 12:54:46;;;;;;;7.33;5.20;;;10.80;99.90;;;;;;5056335;28;20202;-68
2022/01/02 12:57:15;;;;;;;5.13;4.00;;;10.80;99.90;;;;;;5049844;28;20203;-68